Time;durP1;ratioP1;P1;durP2;ratioP2;P2;SDS_P1;SDS_P2;PMS_P1;PMS_P2;Temp;Humidity;BMP_temperature;BMP_pressure;BME280_temperature;BME280_humidity;BME280_pressure;Samples;Min_cycle;Max_cycle;Signal;HPM_P1;HPM_P2
2023/08/03 00:00:17;;;;;;;3.28;0.70;;;16.00;99.90;;;;;;5002523;28;20391;-82
2023/08/03 00:02:43;;;;;;;5.43;0.98;;;16.00;99.90;;;;;;4995457;28;20054;-81
2023/08/03 00:05:08;;;;;;;4.00;0.80;;;16.00;99.90;;;;;;5001773;28;20117;-80
2023/08/03 00:07:34;;;;;;;1.52;0.98;;;16.00;99.90;;;;;;5001331;28;20038;-81
2023/08/03 00:10:01;;;;;;;5.63;0.90;;;16.80;99.90;;;;;;5002124;28;20490;-81
2023/08/03 00:12:27;;;;;;;4.45;0.65;;;16.00;99.90;;;;;;4998736;28;20081;-81
2023/08/03 00:14:53;;;;;;;2.67;0.77;;;16.00;99.90;;;;;;5007007;28;20135;-81
2023/08/03 00:17:18;;;;;;;5.45;0.68;;;15.90;99.90;;;;;;4999902;28;20043;-81
2023/08/03 00:19:44;;;;;;;3.33;0.70;;;16.00;99.90;;;;;;4998506;28;20045;-81
2023/08/03 00:22:10;;;;;;;1.90;0.50;;;16.00;99.90;;;;;;5007336;28;20508;-81
2023/08/03 00:24:36;;;;;;;0.98;0.45;;;16.00;99.90;;;;;;4982148;28;20129;-81
2023/08/03 00:27:02;;;;;;;3.80;0.50;;;16.20;99.90;;;;;;5000217;28;20085;-80
2023/08/03 00:29:28;;;;;;;3.03;0.70;;;16.00;99.90;;;;;;5002583;28;20033;-81
2023/08/03 00:31:53;;;;;;;4.78;1.08;;;16.00;99.90;;;;;;5003424;28;20042;-81
2023/08/03 00:34:19;;;;;;;3.20;0.60;;;16.10;99.90;;;;;;5000273;28;20038;-80
2023/08/03 00:36:44;;;;;;;2.85;0.50;;;16.00;99.90;;;;;;4998909;28;20039;-80
2023/08/03 00:39:10;;;;;;;3.90;0.77;;;16.00;99.90;;;;;;5003457;28;20490;-81
2023/08/03 00:41:36;;;;;;;2.45;0.40;;;16.00;99.90;;;;;;5013548;28;20064;-81
2023/08/03 00:44:01;;;;;;;1.70;0.40;;;16.00;99.90;;;;;;5006768;28;20054;-81
2023/08/03 00:46:27;;;;;;;4.57;0.82;;;16.00;99.90;;;;;;4998376;28;20394;-81
2023/08/03 00:48:53;;;;;;;3.45;0.55;;;16.10;99.90;;;;;;4999729;28;20042;-82
2023/08/03 00:51:18;;;;;;;3.05;0.60;;;16.10;99.90;;;;;;5001655;28;20482;-81
2023/08/03 00:53:45;;;;;;;3.78;0.90;;;16.10;99.90;;;;;;4996972;28;20113;-81
2023/08/03 00:56:12;;;;;;;2.85;0.50;;;16.10;99.90;;;;;;4983356;28;20053;-81
2023/08/03 00:58:41;;;;;;;3.60;0.45;;;16.10;99.90;;;;;;5006309;28;20116;-81
2023/08/03 01:01:07;;;;;;;4.50;0.50;;;16.10;99.90;;;;;;5004074;28;20505;-81
2023/08/03 01:03:33;;;;;;;4.03;0.55;;;16.00;99.90;;;;;;5002535;28;20490;-82
2023/08/03 01:05:58;;;;;;;1.98;0.60;;;16.10;99.90;;;;;;5001443;28;20053;-81
2023/08/03 01:08:24;;;;;;;4.50;1.70;;;16.10;99.90;;;;;;4988347;28;20049;-81
2023/08/03 01:10:54;;;;;;;4.97;0.90;;;16.10;99.90;;;;;;5004211;28;20188;-83
2023/08/03 01:13:21;;;;;;;4.55;0.65;;;16.10;99.90;;;;;;5003448;28;20046;-83
2023/08/03 01:15:46;;;;;;;6.20;0.90;;;16.30;99.90;;;;;;5002589;28;20045;-82
2023/08/03 01:18:12;;;;;;;6.38;1.38;;;16.10;99.90;;;;;;5002017;28;20042;-82
2023/08/03 01:20:40;;;;;;;5.45;0.90;;;16.10;99.90;;;;;;5005995;28;20247;-82
2023/08/03 01:23:06;;;;;;;3.72;0.57;;;16.40;99.90;;;;;;5005633;28;20081;-82
2023/08/03 01:25:32;;;;;;;1.52;0.85;;;16.10;99.90;;;;;;5000597;28;20043;-82
2023/08/03 01:27:58;;;;;;;6.35;1.00;;;16.60;99.90;;;;;;5001167;28;20050;-82
2023/08/03 01:30:24;;;;;;;6.47;1.05;;;16.10;99.90;;;;;;5005220;28;20045;-82
2023/08/03 01:32:50;;;;;;;1.33;0.60;;;16.10;99.90;;;;;;5005553;28;20113;-82
2023/08/03 01:35:16;;;;;;;2.75;0.68;;;16.10;99.90;;;;;;5003030;28;20053;-81
2023/08/03 01:37:42;;;;;;;1.92;0.55;;;16.10;99.90;;;;;;5002539;28;20112;-81
2023/08/03 01:40:10;;;;;;;2.72;0.70;;;16.50;99.90;;;;;;5002086;28;20445;-81
2023/08/03 01:42:37;;;;;;;3.03;0.60;;;16.10;99.90;;;;;;5004114;28;20464;-80
2023/08/03 01:45:07;;;;;;;2.35;0.40;;;16.10;99.90;;;;;;5005812;28;20057;-82
2023/08/03 01:47:33;;;;;;;3.47;0.40;;;16.10;99.90;;;;;;4993752;28;20039;-82
2023/08/03 01:49:59;;;;;;;6.70;0.55;;;16.10;99.90;;;;;;5002222;28;20053;-81
2023/08/03 01:52:25;;;;;;;3.08;0.47;;;16.10;99.90;;;;;;5002671;28;20502;-82
2023/08/03 01:54:50;;;;;;;1.77;0.63;;;16.10;99.90;;;;;;5005452;28;20025;-82
2023/08/03 01:57:19;;;;;;;1.13;0.40;;;16.10;99.90;;;;;;5003496;28;20044;-82
2023/08/03 01:59:45;;;;;;;5.88;0.43;;;16.10;99.90;;;;;;4999972;28;20479;-81
2023/08/03 02:02:11;;;;;;;3.83;0.20;;;16.10;99.90;;;;;;5002418;28;20034;-82
2023/08/03 02:04:37;;;;;;;2.22;0.28;;;16.10;99.90;;;;;;5005140;28;20038;-80
2023/08/03 02:07:17;;;;;;;6.85;0.22;;;16.10;99.90;;;;;;5004473;28;20046;-82
2023/08/03 02:09:43;;;;;;;2.60;0.30;;;16.10;99.90;;;;;;4994415;28;20402;-80
2023/08/03 02:12:09;;;;;;;3.10;0.55;;;16.10;99.90;;;;;;5000410;28;20058;-81
2023/08/03 02:14:34;;;;;;;0.45;0.25;;;16.10;99.90;;;;;;5004575;28;20037;-81
2023/08/03 02:17:00;;;;;;;1.83;0.28;;;16.10;99.90;;;;;;5004937;28;20041;-81
2023/08/03 02:19:26;;;;;;;2.45;0.55;;;16.10;99.90;;;;;;5001534;28;20038;-81
2023/08/03 02:21:52;;;;;;;2.92;0.55;;;16.10;99.90;;;;;;5001267;28;20192;-81
2023/08/03 02:24:18;;;;;;;1.17;0.38;;;16.10;99.90;;;;;;5002992;28;20045;-80
2023/08/03 02:26:43;;;;;;;2.13;0.50;;;16.10;99.90;;;;;;5012816;28;20048;-81
2023/08/03 02:29:09;;;;;;;2.10;0.50;;;16.10;99.90;;;;;;5010424;28;20047;-80
2023/08/03 02:31:34;;;;;;;4.50;0.50;;;16.50;99.90;;;;;;4992904;28;20073;-82
2023/08/03 02:34:00;;;;;;;2.33;0.50;;;16.10;99.90;;;;;;5001398;28;20042;-81
2023/08/03 02:36:26;;;;;;;6.38;0.77;;;16.10;99.90;;;;;;5001080;28;20042;-83
2023/08/03 02:38:51;;;;;;;1.77;0.50;;;16.60;99.90;;;;;;5003419;28;20069;-82
2023/08/03 02:41:17;;;;;;;1.33;0.70;;;16.00;99.90;;;;;;4996232;28;20050;-81
2023/08/03 02:43:43;;;;;;;3.28;0.88;;;16.10;99.90;;;;;;5003667;28;20121;-81
2023/08/03 02:46:08;;;;;;;1.73;0.80;;;16.10;99.90;;;;;;4996643;28;20040;-82
2023/08/03 02:48:34;;;;;;;2.53;0.90;;;16.00;99.90;;;;;;5003349;28;20376;-80
2023/08/03 02:51:00;;;;;;;4.90;0.75;;;16.30;99.90;;;;;;5004306;28;20041;-81
2023/08/03 02:53:25;;;;;;;5.57;1.50;;;16.10;99.90;;;;;;5001171;28;20104;-81
2023/08/03 02:55:51;;;;;;;6.38;0.60;;;16.00;99.90;;;;;;4982369;28;20089;-80
2023/08/03 02:58:17;;;;;;;5.18;1.00;;;16.00;99.90;;;;;;5001420;28;20084;-82
2023/08/03 03:00:43;;;;;;;3.05;1.40;;;16.00;99.90;;;;;;5004432;28;20073;-82
2023/08/03 03:03:08;;;;;;;2.40;1.20;;;16.10;99.90;;;;;;5002324;28;20129;-81
2023/08/03 03:05:34;;;;;;;1.75;1.02;;;16.00;99.90;;;;;;5001059;28;20031;-80
2023/08/03 03:08:00;;;;;;;1.52;1.05;;;16.00;99.90;;;;;;5000524;28;20038;-82
2023/08/03 03:10:25;;;;;;;4.03;1.27;;;16.00;99.90;;;;;;5001467;28;20058;-80
2023/08/03 03:12:52;;;;;;;1.73;1.00;;;16.10;99.90;;;;;;5003746;28;20038;-80
2023/08/03 03:15:17;;;;;;;4.22;1.65;;;16.10;99.90;;;;;;5003112;28;20048;-80
2023/08/03 03:17:43;;;;;;;3.13;1.80;;;16.10;99.90;;;;;;4999996;28;20042;-81
2023/08/03 03:20:11;;;;;;;2.88;1.13;;;16.10;99.90;;;;;;4999130;28;20044;-81
2023/08/03 03:22:36;;;;;;;3.78;1.38;;;16.10;99.90;;;;;;5003339;28;20145;-82
2023/08/03 03:25:05;;;;;;;3.33;1.52;;;16.10;99.90;;;;;;5001925;28;20129;-83
2023/08/03 03:27:31;;;;;;;3.22;1.75;;;16.10;99.90;;;;;;5003689;28;20038;-82
2023/08/03 03:29:57;;;;;;;4.45;1.73;;;16.10;99.90;;;;;;5003942;28;20179;-80
2023/08/03 03:32:22;;;;;;;3.90;1.70;;;16.10;99.90;;;;;;5002220;28;20069;-81
2023/08/03 03:34:48;;;;;;;4.85;1.83;;;16.10;99.90;;;;;;5000452;28;20049;-80
2023/08/03 03:37:14;;;;;;;3.50;1.83;;;16.10;99.90;;;;;;4998879;28;20058;-81
2023/08/03 03:39:39;;;;;;;3.78;2.40;;;16.10;99.90;;;;;;5002607;28;20061;-81
2023/08/03 03:42:05;;;;;;;4.25;2.65;;;16.10;99.90;;;;;;5003604;28;20041;-81
2023/08/03 03:44:32;;;;;;;4.90;2.63;;;16.10;99.90;;;;;;5002096;28;20120;-80
2023/08/03 03:46:58;;;;;;;4.78;2.28;;;16.10;99.90;;;;;;5002803;28;20046;-81
2023/08/03 03:49:24;;;;;;;8.18;3.90;;;16.00;99.90;;;;;;5002842;28;20441;-83
2023/08/03 03:51:49;;;;;;;2.53;2.40;;;16.00;99.90;;;;;;4999546;28;20047;-82
2023/08/03 03:54:15;;;;;;;7.22;3.33;;;16.00;99.90;;;;;;4982646;28;20062;-80
2023/08/03 03:56:41;;;;;;;4.22;3.67;;;16.00;99.90;;;;;;4985307;28;20038;-80
2023/08/03 03:59:06;;;;;;;8.07;5.00;;;16.00;99.90;;;;;;5002513;28;20077;-80
2023/08/03 04:01:32;;;;;;;9.15;4.28;;;16.00;99.90;;;;;;5001688;28;20078;-82
2023/08/03 04:03:57;;;;;;;10.30;4.47;;;16.30;99.90;;;;;;5000317;28;20078;-81
2023/08/03 04:06:23;;;;;;;9.98;4.65;;;16.00;99.90;;;;;;5000175;28;20034;-81
2023/08/03 04:08:49;;;;;;;9.85;4.47;;;15.90;99.90;;;;;;5002603;28;20069;-81
2023/08/03 04:11:14;;;;;;;11.10;4.20;;;15.90;99.90;;;;;;5003160;28;20494;-83
2023/08/03 04:13:40;;;;;;;6.30;4.50;;;15.90;99.90;;;;;;5010346;28;20053;-81
2023/08/03 04:16:06;;;;;;;5.97;3.95;;;15.90;99.90;;;;;;5005954;28;20042;-82
2023/08/03 04:18:31;;;;;;;10.70;5.30;;;16.60;99.90;;;;;;4984433;28;20495;-81
2023/08/03 04:20:57;;;;;;;6.18;5.05;;;15.90;99.90;;;;;;5002688;28;20089;-82
2023/08/03 04:23:23;;;;;;;6.22;3.72;;;15.90;99.90;;;;;;5002980;28;20042;-80
2023/08/03 04:25:48;;;;;;;9.00;4.45;;;16.40;99.90;;;;;;4999537;28;20045;-80
2023/08/03 04:28:14;;;;;;;7.55;4.28;;;15.90;99.90;;;;;;5006272;28;20099;-81
2023/08/03 04:30:39;;;;;;;7.10;4.70;;;15.90;99.90;;;;;;5000635;28;20482;-82
2023/08/03 04:33:05;;;;;;;10.75;4.20;;;15.90;99.90;;;;;;5003737;28;20072;-81
2023/08/03 04:35:31;;;;;;;9.20;4.53;;;16.00;99.90;;;;;;5002269;28;20079;-81
2023/08/03 04:37:56;;;;;;;6.50;4.28;;;16.00;99.90;;;;;;5006964;28;20042;-81
2023/08/03 04:40:22;;;;;;;7.20;4.20;;;17.20;99.90;;;;;;5005670;28;20042;-81
2023/08/03 04:42:48;;;;;;;7.70;4.30;;;16.00;99.90;;;;;;5003273;28;20398;-81
2023/08/03 04:45:13;;;;;;;7.40;3.55;;;16.00;99.90;;;;;;5009818;28;20488;-82
2023/08/03 04:47:39;;;;;;;6.45;2.92;;;16.00;99.90;;;;;;5003622;28;20038;-80
2023/08/03 04:50:05;;;;;;;3.63;2.08;;;16.10;99.90;;;;;;5006068;28;20049;-82
2023/08/03 04:52:31;;;;;;;5.78;1.60;;;16.10;99.90;;;;;;5005833;28;20048;-81
2023/08/03 04:54:56;;;;;;;3.58;1.83;;;16.10;99.90;;;;;;5002937;28;20129;-81
2023/08/03 04:57:22;;;;;;;6.03;2.00;;;16.10;99.90;;;;;;5002356;28;20134;-82
2023/08/03 04:59:48;;;;;;;5.05;1.45;;;16.10;99.90;;;;;;5002209;28;20160;-82
2023/08/03 05:02:13;;;;;;;7.32;1.33;;;16.10;99.90;;;;;;5002325;28;20514;-80
2023/08/03 05:04:39;;;;;;;5.25;1.77;;;16.10;99.90;;;;;;5004399;28;20042;-83
2023/08/03 05:07:05;;;;;;;6.22;1.23;;;16.70;99.90;;;;;;5006132;28;20042;-83
2023/08/03 05:09:30;;;;;;;7.72;1.73;;;16.00;99.90;;;;;;5004997;28;20367;-83
2023/08/03 05:11:56;;;;;;;2.97;1.17;;;16.10;99.90;;;;;;5001648;28;20038;-83
2023/08/03 05:14:22;;;;;;;6.72;1.30;;;16.10;99.90;;;;;;5001378;28;20058;-82
2023/08/03 05:16:48;;;;;;;5.90;1.50;;;16.10;99.90;;;;;;5004485;28;20042;-83
2023/08/03 05:19:13;;;;;;;6.45;2.03;;;16.10;99.90;;;;;;5006366;28;20045;-80
2023/08/03 05:21:39;;;;;;;11.10;2.78;;;15.80;99.90;;;;;;4987089;28;20056;-80
2023/08/03 05:24:05;;;;;;;4.43;1.92;;;17.50;99.90;;;;;;5005744;28;20386;-82
2023/08/03 05:26:34;;;;;;;5.28;2.35;;;16.00;99.90;;;;;;5005680;28;20052;-81
2023/08/03 05:29:00;;;;;;;10.27;3.05;;;17.50;99.90;;;;;;5001404;28;20045;-81
2023/08/03 05:31:26;;;;;;;9.82;3.40;;;16.00;99.90;;;;;;5001887;28;20414;-81
2023/08/03 05:33:53;;;;;;;10.00;3.25;;;16.00;99.90;;;;;;5005334;28;20108;-81
2023/08/03 05:36:19;;;;;;;8.27;3.30;;;16.20;99.90;;;;;;4987940;28;20048;-83
2023/08/03 05:38:44;;;;;;;10.02;3.95;;;16.00;99.90;;;;;;5002220;28;20433;-79
2023/08/03 05:41:15;;;;;;;7.25;3.38;;;16.00;99.90;;;;;;5001109;28;20042;-82
2023/08/03 05:43:41;;;;;;;8.32;3.28;;;16.00;99.90;;;;;;5001180;28;20046;-82
2023/08/03 05:46:12;;;;;;;11.95;4.10;;;16.00;99.90;;;;;;5004686;28;20375;-81
2023/08/03 05:48:37;;;;;;;6.65;3.65;;;17.20;99.90;;;;;;5005145;28;20069;-81
2023/08/03 05:51:03;;;;;;;17.63;4.43;;;16.10;99.90;;;;;;5009320;28;20038;-80
2023/08/03 05:53:29;;;;;;;7.45;4.38;;;16.50;99.90;;;;;;5001738;28;20038;-80
2023/08/03 05:55:55;;;;;;;7.57;4.28;;;17.20;99.90;;;;;;5005171;28;20038;-81
2023/08/03 05:58:21;;;;;;;10.75;4.65;;;16.30;99.90;;;;;;5009379;28;20064;-81
2023/08/03 06:00:48;;;;;;;12.35;5.28;;;16.10;99.90;;;;;;5013980;28;20073;-80
2023/08/03 06:03:16;;;;;;;8.20;3.80;;;16.30;99.90;;;;;;5006608;28;20513;-80
2023/08/03 06:05:49;;;;;;;6.32;4.03;;;16.60;99.90;;;;;;5002609;28;20053;-84
2023/08/03 06:08:20;;;;;;;11.43;4.93;;;16.20;99.90;;;;;;5000720;28;20038;-80
2023/08/03 06:11:00;;;;;;;11.45;4.80;;;16.20;99.90;;;;;;5001491;28;20098;-83
2023/08/03 06:13:27;;;;;;;7.80;4.15;;;16.30;99.90;;;;;;5004169;28;20052;-80
2023/08/03 06:15:53;;;;;;;10.70;4.47;;;16.20;99.90;;;;;;5002640;28;20482;-80
2023/08/03 06:18:20;;;;;;;5.68;3.60;;;16.20;99.90;;;;;;5000707;28;20034;-82
2023/08/03 06:20:48;;;;;;;9.25;3.80;;;16.20;99.90;;;;;;5000636;28;20572;-83
2023/08/03 06:23:18;;;;;;;6.93;3.85;;;16.20;99.90;;;;;;5003430;28;20494;-83
2023/08/03 06:25:46;;;;;;;7.00;3.38;;;16.40;99.90;;;;;;5003960;28;20038;-84
2023/08/03 06:28:14;;;;;;;9.70;3.92;;;16.20;99.90;;;;;;5000835;28;20080;-82
2023/08/03 06:30:40;;;;;;;6.15;3.75;;;16.20;99.90;;;;;;5000427;28;20073;-82
2023/08/03 06:33:10;;;;;;;6.45;4.20;;;16.20;99.90;;;;;;5004654;28;20042;-80
2023/08/03 06:35:38;;;;;;;8.10;4.07;;;16.20;99.90;;;;;;5002813;28;20081;-80
2023/08/03 06:38:19;;;;;;;5.68;3.70;;;16.20;99.90;;;;;;4993321;28;20044;-83
2023/08/03 06:40:46;;;;;;;6.78;3.65;;;16.30;99.90;;;;;;4999764;28;20046;-80
2023/08/03 06:43:13;;;;;;;7.43;3.80;;;16.50;99.90;;;;;;5004456;28;20056;-82
2023/08/03 06:45:40;;;;;;;8.52;4.32;;;16.30;99.90;;;;;;5002825;28;20042;-83
2023/08/03 06:48:07;;;;;;;9.18;3.47;;;16.40;99.90;;;;;;4996610;28;20081;-84
2023/08/03 06:50:34;;;;;;;4.47;3.35;;;16.40;99.90;;;;;;5002866;28;20490;-85
2023/08/03 06:53:02;;;;;;;10.77;3.50;;;16.50;99.90;;;;;;5001490;28;20116;-83
2023/08/03 06:55:28;;;;;;;5.72;3.22;;;16.40;99.90;;;;;;4999943;28;20073;-83
2023/08/03 06:57:53;;;;;;;5.68;3.05;;;16.80;99.90;;;;;;5002486;28;20038;-80
2023/08/03 07:00:19;;;;;;;5.38;2.67;;;16.50;99.90;;;;;;5003689;28;20434;-84
2023/08/03 07:02:46;;;;;;;6.05;3.17;;;16.50;99.90;;;;;;5003725;28;20371;-84
2023/08/03 07:05:12;;;;;;;5.28;2.70;;;17.00;99.90;;;;;;4999872;28;20364;-83
2023/08/03 07:07:37;;;;;;;3.10;2.13;;;16.60;99.90;;;;;;5001057;28;20050;-83
2023/08/03 07:10:03;;;;;;;3.33;1.67;;;16.60;99.90;;;;;;4999846;28;20093;-84
2023/08/03 07:12:29;;;;;;;2.47;1.38;;;16.70;99.90;;;;;;4999440;28;20054;-82
2023/08/03 07:14:55;;;;;;;4.45;1.17;;;16.70;99.90;;;;;;5002181;28;20041;-81
2023/08/03 07:17:22;;;;;;;3.25;1.45;;;16.70;99.90;;;;;;5003319;28;20056;-82
2023/08/03 07:19:50;;;;;;;4.13;1.48;;;16.80;99.90;;;;;;5003449;28;20037;-82
2023/08/03 07:22:17;;;;;;;6.35;1.30;;;16.90;99.90;;;;;;5000398;28;20486;-82
2023/08/03 07:24:43;;;;;;;6.03;1.17;;;16.90;99.90;;;;;;4999845;28;20446;-81
2023/08/03 07:27:09;;;;;;;2.15;0.55;;;16.90;99.90;;;;;;5003510;28;20061;-81
2023/08/03 07:29:37;;;;;;;2.72;0.63;;;16.90;99.90;;;;;;4986691;28;20042;-81
2023/08/03 07:32:04;;;;;;;5.38;1.40;;;16.90;99.90;;;;;;5000603;28;20037;-81
2023/08/03 07:34:30;;;;;;;1.90;0.60;;;17.00;99.90;;;;;;4998873;28;20478;-82
2023/08/03 07:36:57;;;;;;;4.43;0.80;;;17.00;99.90;;;;;;5000104;28;20487;-81
2023/08/03 07:39:23;;;;;;;3.72;0.40;;;17.00;99.90;;;;;;5002782;28;20041;-81
2023/08/03 07:41:48;;;;;;;1.30;0.40;;;17.00;99.90;;;;;;5002962;28;20042;-81
2023/08/03 07:44:18;;;;;;;2.17;0.30;;;17.00;99.90;;;;;;5008295;28;20577;-82
2023/08/03 07:46:44;;;;;;;5.00;0.50;;;17.10;99.90;;;;;;5013932;28;20060;-80
2023/08/03 07:49:10;;;;;;;3.50;0.50;;;18.00;99.90;;;;;;5004408;28;20045;-83
2023/08/03 07:51:36;;;;;;;1.65;0.32;;;17.30;99.90;;;;;;5000884;28;20039;-83
2023/08/03 07:54:02;;;;;;;2.88;0.88;;;17.30;99.90;;;;;;5002242;28;20061;-85
2023/08/03 07:56:28;;;;;;;2.15;0.30;;;17.40;99.90;;;;;;5003113;28;20033;-81
2023/08/03 07:58:53;;;;;;;2.55;0.60;;;17.40;99.90;;;;;;5002086;28;20049;-85
2023/08/03 08:01:20;;;;;;;4.18;0.80;;;17.50;99.90;;;;;;4982815;28;20136;-82
2023/08/03 08:03:45;;;;;;;2.75;0.40;;;17.50;99.90;;;;;;4999969;28;20073;-82
2023/08/03 08:06:16;;;;;;;4.60;0.60;;;17.50;99.90;;;;;;5002841;28;20488;-81
2023/08/03 08:08:43;;;;;;;5.30;0.50;;;17.60;99.90;;;;;;5006113;28;20371;-82
2023/08/03 08:11:09;;;;;;;6.40;0.60;;;17.60;99.90;;;;;;5003755;28;20049;-81
2023/08/03 08:13:35;;;;;;;5.22;0.77;;;17.70;99.90;;;;;;5003655;28;20039;-84
2023/08/03 08:16:03;;;;;;;3.60;0.80;;;17.70;99.90;;;;;;5004917;28;20038;-81
2023/08/03 08:18:29;;;;;;;4.43;0.60;;;18.00;99.90;;;;;;5006226;28;20121;-81
2023/08/03 08:21:06;;;;;;;3.55;0.47;;;17.80;99.90;;;;;;5004809;28;20045;-84
2023/08/03 08:23:32;;;;;;;1.58;0.35;;;17.80;99.90;;;;;;5003951;28;20054;-84
2023/08/03 08:25:58;;;;;;;4.22;0.52;;;17.90;99.90;;;;;;5002971;28;20081;-87
2023/08/03 08:28:24;;;;;;;4.10;0.47;;;18.10;99.90;;;;;;5005201;28;20082;-84
2023/08/03 08:30:50;;;;;;;6.47;0.65;;;18.00;99.90;;;;;;5007217;28;20064;-83
2023/08/03 08:33:20;;;;;;;5.93;0.40;;;18.00;99.90;;;;;;5003127;28;20096;-85
2023/08/03 08:35:48;;;;;;;4.82;0.70;;;18.20;99.90;;;;;;5003415;28;20038;-84
2023/08/03 08:38:15;;;;;;;5.15;0.60;;;18.10;99.90;;;;;;5006121;28;20124;-83
2023/08/03 08:40:41;;;;;;;3.38;0.30;;;18.20;99.90;;;;;;5006241;28;20068;-83
2023/08/03 08:43:07;;;;;;;8.30;0.77;;;18.10;99.90;;;;;;5003479;28;20505;-84
2023/08/03 08:45:34;;;;;;;3.58;0.60;;;18.20;99.90;;;;;;5003416;28;20034;-85
2023/08/03 08:48:00;;;;;;;3.85;0.60;;;18.20;99.90;;;;;;5003473;28;20088;-85
2023/08/03 08:50:26;;;;;;;4.25;0.63;;;18.30;99.90;;;;;;5006762;28;20124;-83
2023/08/03 08:52:53;;;;;;;2.13;0.57;;;19.10;99.90;;;;;;5006506;28;20077;-82
2023/08/03 08:55:22;;;;;;;5.10;0.57;;;18.50;99.90;;;;;;5001483;28;20033;-84
2023/08/03 08:57:47;;;;;;;4.30;0.98;;;18.50;99.90;;;;;;5003317;28;20038;-82
2023/08/03 09:00:14;;;;;;;4.97;0.57;;;18.60;99.90;;;;;;5005396;28;20487;-83
2023/08/03 09:02:40;;;;;;;4.50;0.90;;;18.60;99.90;;;;;;5005865;28;20180;-84
2023/08/03 09:05:20;;;;;;;10.30;1.10;;;18.60;99.90;;;;;;5005016;28;20137;-81
2023/08/03 09:07:58;;;;;;;3.05;0.43;;;18.60;99.90;;;;;;5003010;28;20042;-85
2023/08/03 09:10:23;;;;;;;2.75;0.50;;;18.70;99.90;;;;;;4994320;28;20051;-83
2023/08/03 09:12:49;;;;;;;8.73;1.05;;;19.30;99.90;;;;;;5002925;28;20047;-83
2023/08/03 09:15:15;;;;;;;5.80;0.90;;;18.70;99.90;;;;;;5005060;28;20034;-85
2023/08/03 09:17:42;;;;;;;4.75;0.60;;;18.70;99.90;;;;;;4988056;28;20512;-81
2023/08/03 09:20:23;;;;;;;4.82;1.00;;;18.70;99.90;;;;;;5004807;28;20042;-83
2023/08/03 09:22:50;;;;;;;7.68;1.17;;;18.70;99.90;;;;;;5002230;28;20057;-84
2023/08/03 09:25:15;;;;;;;5.03;1.35;;;18.80;99.90;;;;;;5004371;28;20502;-83
2023/08/03 09:27:49;;;;;;;4.55;1.25;;;18.70;99.90;;;;;;5006272;28;20042;-82
2023/08/03 09:30:15;;;;;;;5.18;1.27;;;18.60;99.90;;;;;;5009803;28;20137;-83
2023/08/03 09:32:41;;;;;;;6.82;0.90;;;18.60;99.90;;;;;;5011450;28;20110;-83
2023/08/03 09:35:21;;;;;;;5.82;1.23;;;18.60;99.90;;;;;;5005841;28;20448;-84
2023/08/03 09:37:48;;;;;;;3.85;1.00;;;18.70;99.90;;;;;;5005271;28;20517;-85
2023/08/03 09:40:17;;;;;;;6.47;1.17;;;18.80;99.90;;;;;;5004300;28;20038;-86
2023/08/03 09:42:43;;;;;;;4.32;0.80;;;19.00;99.90;;;;;;5002164;28;20050;-83
2023/08/03 09:45:09;;;;;;;4.47;0.98;;;19.00;99.90;;;;;;5002188;28;20085;-84
2023/08/03 09:47:35;;;;;;;2.35;1.00;;;19.00;99.90;;;;;;5005607;28;20038;-84
2023/08/03 09:50:02;;;;;;;4.38;0.90;;;19.10;99.90;;;;;;5005595;28;20084;-83
2023/08/03 09:52:29;;;;;;;4.13;0.85;;;19.20;99.90;;;;;;5001567;28;20066;-84
2023/08/03 09:55:21;;;;;;;5.10;1.00;;;19.30;99.90;;;;;;5001803;28;20038;-84
2023/08/03 09:57:56;;;;;;;7.50;0.95;;;19.30;99.90;;;;;;5001386;28;20042;-83
2023/08/03 10:00:23;;;;;;;6.38;0.93;;;19.40;99.90;;;;;;5003098;28;20050;-84
2023/08/03 10:02:55;;;;;;;6.75;0.98;;;19.40;99.90;;;;;;5005075;28;20474;-83
2023/08/03 10:05:23;;;;;;;3.30;0.90;;;19.40;99.90;;;;;;5002594;28;20069;-81
2023/08/03 10:08:22;;;;;;;6.35;0.98;;;19.30;99.90;;;;;;5001724;28;20417;-83
2023/08/03 10:10:50;;;;;;;6.72;1.40;;;19.30;99.90;;;;;;4979455;28;20469;-81
2023/08/03 10:13:15;;;;;;;6.15;1.15;;;19.40;99.90;;;;;;5002174;28;20030;-83
2023/08/03 10:15:42;;;;;;;6.55;1.80;;;19.40;99.90;;;;;;5003669;28;20053;-83
2023/08/03 10:18:08;;;;;;;2.83;0.80;;;19.40;99.90;;;;;;5005078;28;20227;-79
2023/08/03 10:20:35;;;;;;;4.65;0.90;;;19.30;99.90;;;;;;4980393;28;20080;-82
2023/08/03 10:23:18;;;;;;;5.07;0.70;;;19.40;99.90;;;;;;5004828;28;20073;-83
2023/08/03 10:25:52;;;;;;;3.88;0.95;;;19.60;99.90;;;;;;4992832;28;20078;-83
2023/08/03 10:28:18;;;;;;;5.47;0.95;;;19.70;99.90;;;;;;5002397;28;20039;-84
2023/08/03 10:31:14;;;;;;;5.50;1.20;;;19.70;99.90;;;;;;5004572;28;20100;-81
2023/08/03 10:33:51;;;;;;;4.72;0.90;;;19.80;99.90;;;;;;4993123;28;20202;-82
2023/08/03 10:36:26;;;;;;;2.55;0.70;;;19.80;99.90;;;;;;5000342;28;20487;-82
2023/08/03 10:39:14;;;;;;;5.20;1.05;;;20.00;99.90;;;;;;5004748;28;20128;-81
2023/08/03 10:41:51;;;;;;;4.53;1.02;;;20.10;99.90;;;;;;4992981;28;20038;-84
2023/08/03 10:44:21;;;;;;;4.70;0.82;;;20.10;99.90;;;;;;5001635;28;20042;-82
2023/08/03 10:46:48;;;;;;;6.57;1.27;;;20.10;99.90;;;;;;4986075;28;20040;-84
2023/08/03 10:49:20;;;;;;;4.05;0.80;;;20.20;99.90;;;;;;5004352;28;20038;-80
2023/08/03 10:52:17;;;;;;;3.03;0.80;;;20.20;99.90;;;;;;4999721;28;20049;-81
2023/08/03 10:54:43;;;;;;;3.78;0.90;;;20.30;99.90;;;;;;4991152;28;20145;-81
2023/08/03 10:57:11;;;;;;;4.10;0.68;;;20.40;99.90;;;;;;5008277;28;20077;-82
2023/08/03 10:59:45;;;;;;;1.63;0.30;;;20.40;99.90;;;;;;5001377;28;20080;-82
2023/08/03 11:02:32;;;;;;;1.65;0.40;;;20.30;99.90;;;;;;5000070;28;20057;-81
2023/08/03 11:05:05;;;;;;;2.15;0.40;;;20.40;99.90;;;;;;4993567;28;20042;-81
2023/08/03 11:07:36;;;;;;;2.20;0.40;;;20.40;99.90;;;;;;5000815;28;20140;-82
2023/08/03 11:10:04;;;;;;;0.98;0.17;;;20.50;99.90;;;;;;5000091;28;20058;-83
2023/08/03 11:12:31;;;;;;;1.98;0.43;;;20.50;99.90;;;;;;5003669;28;20046;-81
2023/08/03 11:14:57;;;;;;;4.55;0.60;;;20.40;99.90;;;;;;4996539;28;20037;-81
2023/08/03 11:17:25;;;;;;;3.88;0.57;;;20.40;99.90;;;;;;5009955;28;20050;-80
2023/08/03 11:19:52;;;;;;;2.60;0.50;;;20.30;99.90;;;;;;5001084;28;20074;-83
2023/08/03 11:22:21;;;;;;;4.45;0.70;;;20.30;99.90;;;;;;4998532;28;20042;-81
2023/08/03 11:24:51;;;;;;;6.97;0.82;;;20.30;99.90;;;;;;4992961;28;20042;-82
2023/08/03 11:27:18;;;;;;;6.28;0.90;;;20.40;99.90;;;;;;4999208;28;20069;-82
2023/08/03 11:29:44;;;;;;;4.30;0.50;;;20.40;99.90;;;;;;5003291;28;20037;-82
2023/08/03 11:32:11;;;;;;;3.67;0.90;;;20.40;99.90;;;;;;5003611;28;20038;-82
2023/08/03 11:34:38;;;;;;;4.75;0.60;;;20.30;99.90;;;;;;5001134;28;20118;-83
2023/08/03 11:37:04;;;;;;;2.17;0.65;;;20.20;99.90;;;;;;4999800;28;20492;-81
2023/08/03 11:39:30;;;;;;;7.88;0.50;;;20.20;99.90;;;;;;5000219;28;20046;-81
2023/08/03 11:41:57;;;;;;;2.72;0.60;;;20.20;99.90;;;;;;5002503;28;20046;-83
2023/08/03 11:44:24;;;;;;;3.38;0.88;;;20.30;99.90;;;;;;5002694;28;20053;-82
2023/08/03 11:47:10;;;;;;;1.58;0.30;;;20.40;99.90;;;;;;4998899;28;20062;-81
2023/08/03 11:49:35;;;;;;;3.30;0.52;;;20.50;99.90;;;;;;5000128;28;20129;-83
2023/08/03 11:52:01;;;;;;;2.05;0.28;;;20.60;99.90;;;;;;5003185;28;20506;-82
2023/08/03 11:54:29;;;;;;;2.85;0.50;;;20.80;99.90;;;;;;5002808;28;20038;-82
2023/08/03 11:58:07;;;;;;;2.22;0.35;;;20.80;99.90;;;;;;5000406;28;20030;-81
2023/08/03 11:59:44;;;;;;;1.60;0.40;;;20.90;99.90;;;;;;5002407;28;20046;-81
2023/08/03 12:02:09;;;;;;;3.17;0.50;;;21.00;99.90;;;;;;5002264;28;20046;-82
2023/08/03 12:04:35;;;;;;;3.15;0.52;;;21.00;99.90;;;;;;4999674;28;20049;-82
2023/08/03 12:07:01;;;;;;;2.15;0.50;;;21.10;99.90;;;;;;5000237;28;20045;-80
2023/08/03 12:09:35;;;;;;;2.80;0.68;;;21.20;99.90;;;;;;5000100;28;20038;-81
2023/08/03 12:12:01;;;;;;;2.57;0.70;;;21.20;99.90;;;;;;5002913;28;20108;-83
2023/08/03 12:14:27;;;;;;;4.32;0.73;;;21.20;99.90;;;;;;5001691;28;20284;-81
2023/08/03 12:16:53;;;;;;;5.82;1.08;;;21.30;99.90;;;;;;4999864;28;20049;-82
2023/08/03 12:19:19;;;;;;;6.13;0.93;;;21.30;99.90;;;;;;4999384;28;20049;-83
2023/08/03 12:21:45;;;;;;;3.20;0.93;;;21.20;99.90;;;;;;5002094;28;20050;-83
2023/08/03 12:24:11;;;;;;;6.07;1.35;;;21.00;99.90;;;;;;5003100;28;20042;-82
2023/08/03 12:26:37;;;;;;;5.32;1.15;;;20.80;99.90;;;;;;5001362;28;20057;-82
2023/08/03 12:29:04;;;;;;;8.75;2.00;;;20.70;99.90;;;;;;4999864;28;20038;-83
2023/08/03 12:31:31;;;;;;;7.10;1.45;;;20.50;99.90;;;;;;4999547;28;20038;-82
2023/08/03 12:33:57;;;;;;;6.25;1.30;;;20.50;99.90;;;;;;4990189;28;20158;-81
2023/08/03 12:36:24;;;;;;;6.65;1.30;;;20.40;99.90;;;;;;4998159;28;20038;-83
2023/08/03 12:38:50;;;;;;;4.72;1.27;;;20.30;99.90;;;;;;5001464;28;20461;-81
2023/08/03 12:41:17;;;;;;;6.55;1.05;;;20.20;99.90;;;;;;5002526;28;20038;-81
2023/08/03 12:43:43;;;;;;;8.45;1.45;;;20.10;99.90;;;;;;5003354;28;20128;-81
2023/08/03 12:46:09;;;;;;;3.72;0.75;;;20.00;99.90;;;;;;5002909;28;20092;-82